sensor_id;sensor_type;location;lat;lon;timestamp;pressure;altitude;pressure_sealevel;temperature;humidity
30347;BME280;19047;44.782;20.468;2022-10-16T00:00:26;101388.16;;;15.76;73.41
30347;BME280;19047;44.782;20.468;2022-10-16T00:03:43;101390.53;;;15.77;73.15
30347;BME280;19047;44.782;20.468;2022-10-16T00:07:13;101390.88;;;15.79;73.45
30347;BME280;19047;44.782;20.468;2022-10-16T00:10:30;101391.69;;;15.80;73.38
30347;BME280;19047;44.782;20.468;2022-10-16T00:14:02;101381.97;;;15.81;73.49
30347;BME280;19047;44.782;20.468;2022-10-16T00:17:19;101383.56;;;15.82;73.58
30347;BME280;19047;44.782;20.468;2022-10-16T00:20:50;101351.78;;;15.58;73.75
30347;BME280;19047;44.782;20.468;2022-10-16T00:24:08;101385.97;;;15.83;73.66
30347;BME280;19047;44.782;20.468;2022-10-16T00:27:38;101395.22;;;15.84;73.79
30347;BME280;19047;44.782;20.468;2022-10-16T00:30:55;101396.84;;;15.85;73.63
30347;BME280;19047;44.782;20.468;2022-10-16T00:34:25;101398.44;;;15.86;73.50
30347;BME280;19047;44.782;20.468;2022-10-16T00:37:42;101387.13;;;15.86;73.47
30347;BME280;19047;44.782;20.468;2022-10-16T00:41:16;101368.06;;;15.70;73.59
30347;BME280;19047;44.782;20.468;2022-10-16T00:48:21;101378.25;;;15.87;73.54
30347;BME280;19047;44.782;20.468;2022-10-16T00:51:44;101389.53;;;15.87;73.52
30347;BME280;19047;44.782;20.468;2022-10-16T00:55:15;101383.88;;;15.87;73.17
30347;BME280;19047;44.782;20.468;2022-10-16T00:58:32;101383.88;;;15.87;73.12
30347;BME280;19047;44.782;20.468;2022-10-16T01:02:04;101401.25;;;15.86;73.15
30347;BME280;19047;44.782;20.468;2022-10-16T01:05:24;101391.19;;;15.85;73.10
30347;BME280;19047;44.782;20.468;2022-10-16T01:12:40;101393.63;;;15.83;73.12
30347;BME280;19047;44.782;20.468;2022-10-16T01:16:13;101393.63;;;15.83;73.30
30347;BME280;19047;44.782;20.468;2022-10-16T01:19:42;101391.25;;;15.81;73.27
30347;BME280;19047;44.782;20.468;2022-10-16T01:30:26;101383.19;;;15.80;73.57
30347;BME280;19047;44.782;20.468;2022-10-16T01:33:46;101403.75;;;15.80;73.60
30347;BME280;19047;44.782;20.468;2022-10-16T01:37:22;101398.56;;;15.79;73.55
30347;BME280;19047;44.782;20.468;2022-10-16T01:40:42;101396.97;;;15.78;73.71
30347;BME280;19047;44.782;20.468;2022-10-16T01:44:22;101401.81;;;15.77;73.45
30347;BME280;19047;44.782;20.468;2022-10-16T01:47:41;101401.03;;;15.77;73.70
30347;BME280;19047;44.782;20.468;2022-10-16T01:51:13;101402.69;;;15.74;73.58
30347;BME280;19047;44.782;20.468;2022-10-16T01:54:31;101408.38;;;15.70;73.79
30347;BME280;19047;44.782;20.468;2022-10-16T01:58:03;101411.28;;;15.67;73.64
30347;BME280;19047;44.782;20.468;2022-10-16T02:01:26;101413.38;;;15.63;73.64
30347;BME280;19047;44.782;20.468;2022-10-16T02:05:00;101420.28;;;15.58;73.99
30347;BME280;19047;44.782;20.468;2022-10-16T02:08:19;101380.91;;;15.28;73.92
30347;BME280;19047;44.782;20.468;2022-10-16T02:11:51;101430.09;;;15.50;74.63
30347;BME280;19047;44.782;20.468;2022-10-16T02:15:10;101437.03;;;15.46;74.35
30347;BME280;19047;44.782;20.468;2022-10-16T02:18:40;101429.84;;;15.41;74.20
30347;BME280;19047;44.782;20.468;2022-10-16T02:22:00;101425.94;;;15.35;73.76
30347;BME280;19047;44.782;20.468;2022-10-16T02:25:34;101432.06;;;15.30;73.75
30347;BME280;19047;44.782;20.468;2022-10-16T02:28:55;101433.34;;;15.25;73.87
30347;BME280;19047;44.782;20.468;2022-10-16T02:32:30;101433.03;;;15.20;73.61
30347;BME280;19047;44.782;20.468;2022-10-16T02:35:47;101435.09;;;15.16;73.65
30347;BME280;19047;44.782;20.468;2022-10-16T02:39:19;101445.66;;;15.12;73.86
30347;BME280;19047;44.782;20.468;2022-10-16T02:42:37;101442.09;;;15.08;73.89
30347;BME280;19047;44.782;20.468;2022-10-16T02:46:07;101445.75;;;15.05;74.04
30347;BME280;19047;44.782;20.468;2022-10-16T02:49:24;101438.16;;;15.02;74.06
30347;BME280;19047;44.782;20.468;2022-10-16T02:52:55;101417.00;;;14.90;74.34
30347;BME280;19047;44.782;20.468;2022-10-16T02:56:13;101428.97;;;14.97;74.48
30347;BME280;19047;44.782;20.468;2022-10-16T02:59:43;101434.22;;;14.95;74.52
30347;BME280;19047;44.782;20.468;2022-10-16T03:03:00;101434.28;;;14.92;74.13
30347;BME280;19047;44.782;20.468;2022-10-16T03:06:32;101438.75;;;14.89;74.18
30347;BME280;19047;44.782;20.468;2022-10-16T03:09:51;101452.88;;;14.86;74.26
30347;BME280;19047;44.782;20.468;2022-10-16T03:13:22;101452.94;;;14.82;74.40
30347;BME280;19047;44.782;20.468;2022-10-16T03:16:39;101453.41;;;14.77;74.34
30347;BME280;19047;44.782;20.468;2022-10-16T03:20:08;101448.63;;;14.74;74.28
30347;BME280;19047;44.782;20.468;2022-10-16T03:23:25;101458.38;;;14.70;74.48
30347;BME280;19047;44.782;20.468;2022-10-16T03:26:55;101464.84;;;14.67;74.43
30347;BME280;19047;44.782;20.468;2022-10-16T03:30:12;101462.47;;;14.61;74.38
30347;BME280;19047;44.782;20.468;2022-10-16T03:33:43;101469.78;;;14.59;74.36
30347;BME280;19047;44.782;20.468;2022-10-16T03:37:02;101473.84;;;14.54;74.38
30347;BME280;19047;44.782;20.468;2022-10-16T03:40:33;101453.13;;;14.38;74.41
30347;BME280;19047;44.782;20.468;2022-10-16T03:43:50;101465.50;;;14.47;74.45
30347;BME280;19047;44.782;20.468;2022-10-16T03:47:21;101475.59;;;14.45;74.43
30347;BME280;19047;44.782;20.468;2022-10-16T03:50:39;101470.00;;;14.41;74.53
30347;BME280;19047;44.782;20.468;2022-10-16T03:54:11;101478.06;;;14.39;74.52
30347;BME280;19047;44.782;20.468;2022-10-16T03:57:28;101478.47;;;14.38;74.48
30347;BME280;19047;44.782;20.468;2022-10-16T04:01:03;101487.34;;;14.36;74.69
30347;BME280;19047;44.782;20.468;2022-10-16T04:04:23;101480.53;;;14.34;74.82
30347;BME280;19047;44.782;20.468;2022-10-16T04:07:54;101487.00;;;14.31;74.87
30347;BME280;19047;44.782;20.468;2022-10-16T04:11:12;101491.44;;;14.28;74.93
30347;BME280;19047;44.782;20.468;2022-10-16T04:14:43;101453.16;;;14.00;74.88
30347;BME280;19047;44.782;20.468;2022-10-16T04:18:00;101494.72;;;14.23;74.84
30347;BME280;19047;44.782;20.468;2022-10-16T04:21:34;101487.91;;;14.20;74.99
30347;BME280;19047;44.782;20.468;2022-10-16T04:24:52;101498.00;;;14.18;75.05
30347;BME280;19047;44.782;20.468;2022-10-16T04:28:23;101504.06;;;14.16;75.05
30347;BME280;19047;44.782;20.468;2022-10-16T04:31:40;101500.47;;;14.12;74.79
30347;BME280;19047;44.782;20.468;2022-10-16T04:35:10;101506.94;;;14.09;74.88
30347;BME280;19047;44.782;20.468;2022-10-16T04:38:27;101500.13;;;14.07;74.88
30347;BME280;19047;44.782;20.468;2022-10-16T04:41:58;101496.59;;;13.99;74.99
30347;BME280;19047;44.782;20.468;2022-10-16T04:45:29;101489.34;;;14.02;75.07
30347;BME280;19047;44.782;20.468;2022-10-16T04:48:46;101498.59;;;13.99;74.96
30347;BME280;19047;44.782;20.468;2022-10-16T04:52:17;101491.00;;;13.96;75.19
30347;BME280;19047;44.782;20.468;2022-10-16T04:55:35;101499.88;;;13.94;75.23
30347;BME280;19047;44.782;20.468;2022-10-16T04:59:05;101508.75;;;13.93;75.11
30347;BME280;19047;44.782;20.468;2022-10-16T05:02:22;101505.53;;;13.91;75.38
30347;BME280;19047;44.782;20.468;2022-10-16T05:05:52;101511.56;;;13.89;75.27
30347;BME280;19047;44.782;20.468;2022-10-16T05:09:10;101517.63;;;13.87;75.07
30347;BME280;19047;44.782;20.468;2022-10-16T05:12:40;101528.06;;;13.87;75.12
30347;BME280;19047;44.782;20.468;2022-10-16T05:15:57;101537.72;;;13.86;75.15
30347;BME280;19047;44.782;20.468;2022-10-16T05:19:27;101551.00;;;13.85;75.26
30347;BME280;19047;44.782;20.468;2022-10-16T05:22:44;101546.16;;;13.86;75.39
30347;BME280;19047;44.782;20.468;2022-10-16T05:26:14;101557.00;;;13.87;75.38
30347;BME280;19047;44.782;20.468;2022-10-16T05:29:31;101555.81;;;13.88;75.46
30347;BME280;19047;44.782;20.468;2022-10-16T05:33:05;101551.78;;;13.89;75.48
30347;BME280;19047;44.782;20.468;2022-10-16T05:36:22;101546.16;;;13.89;75.39
30347;BME280;19047;44.782;20.468;2022-10-16T05:39:53;101560.59;;;13.92;75.34
30347;BME280;19047;44.782;20.468;2022-10-16T05:43:11;101569.84;;;13.92;75.74
30347;BME280;19047;44.782;20.468;2022-10-16T05:46:41;101565.81;;;13.93;75.83
30347;BME280;19047;44.782;20.468;2022-10-16T05:49:58;101566.22;;;13.95;75.57
30347;BME280;19047;44.782;20.468;2022-10-16T05:53:30;101578.63;;;13.98;75.57
30347;BME280;19047;44.782;20.468;2022-10-16T05:56:47;101581.84;;;14.00;75.63
30347;BME280;19047;44.782;20.468;2022-10-16T06:00:21;101591.44;;;14.06;75.36
30347;BME280;19047;44.782;20.468;2022-10-16T06:03:38;101586.56;;;14.10;75.56
30347;BME280;19047;44.782;20.468;2022-10-16T06:07:10;101593.34;;;14.16;75.83
30347;BME280;19047;44.782;20.468;2022-10-16T06:10:27;101598.94;;;14.19;75.62
30347;BME280;19047;44.782;20.468;2022-10-16T06:13:58;101610.56;;;14.25;75.71
30347;BME280;19047;44.782;20.468;2022-10-16T06:17:16;101605.25;;;14.31;75.37
30347;BME280;19047;44.782;20.468;2022-10-16T06:20:47;101610.03;;;14.37;75.62
30347;BME280;19047;44.782;20.468;2022-10-16T06:24:05;101622.06;;;14.45;75.66
30347;BME280;19047;44.782;20.468;2022-10-16T06:27:34;101598.78;;;14.37;75.55
30347;BME280;19047;44.782;20.468;2022-10-16T06:30:58;101621.91;;;14.59;75.45
30347;BME280;19047;44.782;20.468;2022-10-16T06:34:28;101627.06;;;14.64;75.77
30347;BME280;19047;44.782;20.468;2022-10-16T06:37:45;101621.09;;;14.58;75.53
30347;BME280;19047;44.782;20.468;2022-10-16T06:41:18;101634.22;;;14.72;75.40
30347;BME280;19047;44.782;20.468;2022-10-16T06:44:35;101654.56;;;14.90;75.31
30347;BME280;19047;44.782;20.468;2022-10-16T06:48:05;101659.69;;;14.99;75.17
30347;BME280;19047;44.782;20.468;2022-10-16T06:51:23;101611.59;;;14.79;74.99
30347;BME280;19047;44.782;20.468;2022-10-16T06:54:55;101661.91;;;15.15;74.59
30347;BME280;19047;44.782;20.468;2022-10-16T06:58:12;101665.81;;;15.24;75.26
30347;BME280;19047;44.782;20.468;2022-10-16T07:01:42;101666.13;;;15.30;75.30
30347;BME280;19047;44.782;20.468;2022-10-16T07:05:07;101668.44;;;15.39;74.98
30347;BME280;19047;44.782;20.468;2022-10-16T07:08:42;101670.72;;;15.47;74.82
30347;BME280;19047;44.782;20.468;2022-10-16T07:11:59;101674.31;;;15.55;74.72
30347;BME280;19047;44.782;20.468;2022-10-16T07:15:31;101665.03;;;15.54;74.63
30347;BME280;19047;44.782;20.468;2022-10-16T07:18:49;101671.72;;;15.67;74.63
30347;BME280;19047;44.782;20.468;2022-10-16T07:22:22;101676.81;;;15.76;74.72
30347;BME280;19047;44.782;20.468;2022-10-16T07:25:53;101685.97;;;15.84;74.72
30347;BME280;19047;44.782;20.468;2022-10-16T07:29:15;101683.03;;;15.91;74.65
30347;BME280;19047;44.782;20.468;2022-10-16T07:32:46;101682.13;;;15.97;74.56
30347;BME280;19047;44.782;20.468;2022-10-16T07:36:03;101682.00;;;16.04;74.33
30347;BME280;19047;44.782;20.468;2022-10-16T07:39:37;101684.28;;;16.13;74.16
30347;BME280;19047;44.782;20.468;2022-10-16T07:42:54;101642.34;;;15.88;74.05
30347;BME280;19047;44.782;20.468;2022-10-16T07:46:29;101682.03;;;16.28;73.91
30347;BME280;19047;44.782;20.468;2022-10-16T07:49:49;101687.56;;;16.35;73.74
30347;BME280;19047;44.782;20.468;2022-10-16T07:53:22;101691.88;;;16.43;73.39
30347;BME280;19047;44.782;20.468;2022-10-16T07:56:40;101699.00;;;16.51;73.40
30347;BME280;19047;44.782;20.468;2022-10-16T08:00:10;101686.28;;;16.63;73.47
30347;BME280;19047;44.782;20.468;2022-10-16T08:03:29;101693.69;;;16.76;73.30
30347;BME280;19047;44.782;20.468;2022-10-16T08:07:00;101700.63;;;16.95;73.79
30347;BME280;19047;44.782;20.468;2022-10-16T08:10:18;101693.16;;;17.05;74.17
30347;BME280;19047;44.782;20.468;2022-10-16T08:13:51;101713.81;;;17.41;73.53
30347;BME280;19047;44.782;20.468;2022-10-16T08:17:08;101718.22;;;17.62;73.47
30347;BME280;19047;44.782;20.468;2022-10-16T08:20:40;101719.03;;;17.82;72.72
30347;BME280;19047;44.782;20.468;2022-10-16T08:23:57;101692.19;;;17.71;73.12
30347;BME280;19047;44.782;20.468;2022-10-16T08:27:35;101703.91;;;18.05;72.59
30347;BME280;19047;44.782;20.468;2022-10-16T08:30:53;101715.69;;;18.20;73.34
30347;BME280;19047;44.782;20.468;2022-10-16T08:34:27;101722.31;;;18.30;72.40
30347;BME280;19047;44.782;20.468;2022-10-16T08:37:43;101696.28;;;18.18;72.44
30347;BME280;19047;44.782;20.468;2022-10-16T08:41:33;101727.66;;;18.44;71.71
30347;BME280;19047;44.782;20.468;2022-10-16T08:45:19;101723.03;;;18.50;71.17
30347;BME280;19047;44.782;20.468;2022-10-16T08:48:54;101720.09;;;18.53;71.52
30347;BME280;19047;44.782;20.468;2022-10-16T08:52:14;101733.69;;;18.62;71.79
30347;BME280;19047;44.782;20.468;2022-10-16T08:55:52;101723.50;;;18.65;70.42
30347;BME280;19047;44.782;20.468;2022-10-16T08:59:10;101710.19;;;18.62;71.40
30347;BME280;19047;44.782;20.468;2022-10-16T09:10:47;101683.09;;;18.60;69.95
30347;BME280;19047;44.782;20.468;2022-10-16T09:18:29;101740.25;;;19.04;69.14
30347;BME280;19047;44.782;20.468;2022-10-16T09:21:50;101728.56;;;19.02;70.45
30347;BME280;19047;44.782;20.468;2022-10-16T09:25:21;101728.72;;;19.11;69.76
30347;BME280;19047;44.782;20.468;2022-10-16T09:28:39;101746.59;;;19.24;70.19
30347;BME280;19047;44.782;20.468;2022-10-16T09:32:17;101722.63;;;19.25;68.89
30347;BME280;19047;44.782;20.468;2022-10-16T09:35:44;101734.47;;;19.37;68.10
30347;BME280;19047;44.782;20.468;2022-10-16T09:39:15;101734.28;;;19.44;68.50
30347;BME280;19047;44.782;20.468;2022-10-16T09:42:39;101736.38;;;19.56;68.51
30347;BME280;19047;44.782;20.468;2022-10-16T09:49:39;101741.50;;;19.74;68.83
30347;BME280;19047;44.782;20.468;2022-10-16T09:53:15;101745.38;;;19.80;67.86
30347;BME280;19047;44.782;20.468;2022-10-16T09:56:35;101745.97;;;19.87;67.73
30347;BME280;19047;44.782;20.468;2022-10-16T10:00:09;101748.91;;;19.96;68.03
30347;BME280;19047;44.782;20.468;2022-10-16T10:03:40;101761.66;;;20.04;67.59
30347;BME280;19047;44.782;20.468;2022-10-16T10:07:19;101754.16;;;20.11;67.03
30347;BME280;19047;44.782;20.468;2022-10-16T10:10:42;101758.38;;;20.19;67.46
30347;BME280;19047;44.782;20.468;2022-10-16T10:17:48;101738.81;;;20.21;67.12
30347;BME280;19047;44.782;20.468;2022-10-16T10:21:18;101714.69;;;20.13;66.17
30347;BME280;19047;44.782;20.468;2022-10-16T10:24:40;101742.41;;;20.59;66.83
30347;BME280;19047;44.782;20.468;2022-10-16T10:32:05;101744.91;;;21.04;67.76
30347;BME280;19047;44.782;20.468;2022-10-16T10:35:52;101719.81;;;21.12;66.59
30347;BME280;19047;44.782;20.468;2022-10-16T10:39:35;101742.91;;;21.48;66.56
30347;BME280;19047;44.782;20.468;2022-10-16T10:47:01;101734.69;;;22.03;66.25
30347;BME280;19047;44.782;20.468;2022-10-16T10:50:43;101736.97;;;22.27;65.93
30347;BME280;19047;44.782;20.468;2022-10-16T10:54:25;101706.25;;;22.31;66.06
30347;BME280;19047;44.782;20.468;2022-10-16T11:01:42;101730.78;;;22.96;66.96
30347;BME280;19047;44.782;20.468;2022-10-16T11:09:09;101723.31;;;23.35;65.54
30347;BME280;19047;44.782;20.468;2022-10-16T11:12:51;101713.78;;;23.47;64.14
30347;BME280;19047;44.782;20.468;2022-10-16T11:16:19;101673.16;;;23.43;64.57
30347;BME280;19047;44.782;20.468;2022-10-16T11:23:28;101698.16;;;23.75;63.89
30347;BME280;19047;44.782;20.468;2022-10-16T11:27:04;101697.06;;;23.73;62.87
30347;BME280;19047;44.782;20.468;2022-10-16T11:30:26;101704.97;;;23.78;64.73
30347;BME280;19047;44.782;20.468;2022-10-16T11:34:22;101707.22;;;23.74;62.61
30347;BME280;19047;44.782;20.468;2022-10-16T11:37:44;101689.94;;;23.68;64.53
30347;BME280;19047;44.782;20.468;2022-10-16T11:41:41;101701.53;;;23.64;62.42
30347;BME280;19047;44.782;20.468;2022-10-16T11:49:11;101666.03;;;23.29;63.54
30347;BME280;19047;44.782;20.468;2022-10-16T11:52:40;101693.94;;;23.43;65.07
30347;BME280;19047;44.782;20.468;2022-10-16T11:56:20;101698.09;;;23.33;63.33
30347;BME280;19047;44.782;20.468;2022-10-16T12:07:39;101693.19;;;23.06;63.68
30347;BME280;19047;44.782;20.468;2022-10-16T12:15:15;101655.63;;;22.71;62.68
30347;BME280;19047;44.782;20.468;2022-10-16T12:18:49;101682.59;;;22.79;63.51
30347;BME280;19047;44.782;20.468;2022-10-16T12:22:17;101656.84;;;22.52;63.35
30347;BME280;19047;44.782;20.468;2022-10-16T12:25:54;101686.97;;;22.62;63.05
30347;BME280;19047;44.782;20.468;2022-10-16T12:29:22;101681.44;;;22.58;64.91
30347;BME280;19047;44.782;20.468;2022-10-16T12:32:56;101681.91;;;22.48;64.12
30347;BME280;19047;44.782;20.468;2022-10-16T12:36:28;101682.38;;;22.46;64.17
30347;BME280;19047;44.782;20.468;2022-10-16T12:40:11;101663.97;;;22.38;63.76
30347;BME280;19047;44.782;20.468;2022-10-16T12:43:41;101650.47;;;22.30;64.34
30347;BME280;19047;44.782;20.468;2022-10-16T12:51:33;101685.38;;;22.52;63.03
30347;BME280;19047;44.782;20.468;2022-10-16T12:55:05;101678.41;;;22.53;63.79
30347;BME280;19047;44.782;20.468;2022-10-16T13:13:51;101688.66;;;22.23;63.83
30347;BME280;19047;44.782;20.468;2022-10-16T13:17:31;101703.72;;;22.33;65.45
30347;BME280;19047;44.782;20.468;2022-10-16T13:25:38;101706.22;;;22.21;64.16
30347;BME280;19047;44.782;20.468;2022-10-16T13:28:35;101698.31;;;22.16;65.81
30347;BME280;19047;44.782;20.468;2022-10-16T13:32:10;101709.06;;;22.12;65.89
30347;BME280;19047;44.782;20.468;2022-10-16T13:35:32;101678.66;;;21.88;66.23
30347;BME280;19047;44.782;20.468;2022-10-16T13:39:15;101677.53;;;21.85;64.22
30347;BME280;19047;44.782;20.468;2022-10-16T13:42:36;101684.53;;;21.84;65.82
30347;BME280;19047;44.782;20.468;2022-10-16T13:46:16;101708.00;;;21.97;65.53
30347;BME280;19047;44.782;20.468;2022-10-16T13:49:36;101666.84;;;21.58;66.64
30347;BME280;19047;44.782;20.468;2022-10-16T13:53:15;101696.88;;;21.81;64.32
30347;BME280;19047;44.782;20.468;2022-10-16T13:56:33;101701.31;;;21.82;65.69
30347;BME280;19047;44.782;20.468;2022-10-16T14:00:20;101708.25;;;21.81;63.95
30347;BME280;19047;44.782;20.468;2022-10-16T14:03:41;101706.81;;;21.76;64.89
30347;BME280;19047;44.782;20.468;2022-10-16T14:07:14;101714.25;;;21.74;64.22
30347;BME280;19047;44.782;20.468;2022-10-16T14:10:38;101717.22;;;21.70;64.95
30347;BME280;19047;44.782;20.468;2022-10-16T14:14:13;101683.84;;;21.40;64.11
30347;BME280;19047;44.782;20.468;2022-10-16T14:17:33;101721.28;;;21.60;64.81
30347;BME280;19047;44.782;20.468;2022-10-16T14:21:06;101718.25;;;21.55;63.79
30347;BME280;19047;44.782;20.468;2022-10-16T14:28:03;101726.94;;;21.51;65.11
30347;BME280;19047;44.782;20.468;2022-10-16T14:34:55;101721.66;;;21.40;64.84
30347;BME280;19047;44.782;20.468;2022-10-16T14:38:18;101717.66;;;21.38;65.23
30347;BME280;19047;44.782;20.468;2022-10-16T14:41:55;101715.75;;;21.35;64.90
30347;BME280;19047;44.782;20.468;2022-10-16T14:45:19;101715.88;;;21.31;65.78
30347;BME280;19047;44.782;20.468;2022-10-16T14:48:50;101728.31;;;21.25;65.41
30347;BME280;19047;44.782;20.468;2022-10-16T14:52:10;101715.34;;;21.24;65.97
30347;BME280;19047;44.782;20.468;2022-10-16T14:55:41;101724.81;;;21.21;64.91
30347;BME280;19047;44.782;20.468;2022-10-16T14:58:59;101725.72;;;21.18;66.24
30347;BME280;19047;44.782;20.468;2022-10-16T15:02:35;101705.50;;;21.03;65.04
30347;BME280;19047;44.782;20.468;2022-10-16T15:05:56;101735.09;;;21.05;65.93
30347;BME280;19047;44.782;20.468;2022-10-16T15:09:27;101734.44;;;21.01;64.84
30347;BME280;19047;44.782;20.468;2022-10-16T15:12:44;101707.53;;;20.81;65.50
30347;BME280;19047;44.782;20.468;2022-10-16T15:16:15;101726.09;;;20.85;64.60
30347;BME280;19047;44.782;20.468;2022-10-16T15:19:33;101695.53;;;20.64;65.78
30347;BME280;19047;44.782;20.468;2022-10-16T15:23:06;101719.56;;;20.63;65.10
30347;BME280;19047;44.782;20.468;2022-10-16T15:26:30;101717.28;;;20.58;65.71
30347;BME280;19047;44.782;20.468;2022-10-16T15:30:02;101735.81;;;20.62;64.65
30347;BME280;19047;44.782;20.468;2022-10-16T15:33:22;101728.22;;;20.47;65.52
30347;BME280;19047;44.782;20.468;2022-10-16T15:36:57;101729.59;;;20.42;65.10
30347;BME280;19047;44.782;20.468;2022-10-16T15:40:15;101742.00;;;20.35;65.52
30347;BME280;19047;44.782;20.468;2022-10-16T15:43:50;101744.81;;;20.23;65.03
30347;BME280;19047;44.782;20.468;2022-10-16T15:47:07;101728.00;;;20.03;65.76
30347;BME280;19047;44.782;20.468;2022-10-16T15:50:39;101758.00;;;20.04;65.13
30347;BME280;19047;44.782;20.468;2022-10-16T15:54:04;101738.13;;;19.79;65.87
30347;BME280;19047;44.782;20.468;2022-10-16T15:57:34;101759.56;;;19.80;66.43
30347;BME280;19047;44.782;20.468;2022-10-16T16:01:00;101769.47;;;19.75;66.41
30347;BME280;19047;44.782;20.468;2022-10-16T16:04:34;101747.13;;;19.48;67.01
30347;BME280;19047;44.782;20.468;2022-10-16T16:07:52;101772.59;;;19.52;67.37
30347;BME280;19047;44.782;20.468;2022-10-16T16:11:25;101775.69;;;19.41;66.84
30347;BME280;19047;44.782;20.468;2022-10-16T16:14:42;101789.66;;;19.36;67.39
30347;BME280;19047;44.782;20.468;2022-10-16T16:18:13;101796.41;;;19.25;67.21
30347;BME280;19047;44.782;20.468;2022-10-16T16:21:30;101811.25;;;19.17;67.70
30347;BME280;19047;44.782;20.468;2022-10-16T16:25:01;101806.66;;;19.07;67.02
30347;BME280;19047;44.782;20.468;2022-10-16T16:28:18;101809.69;;;19.00;67.82
30347;BME280;19047;44.782;20.468;2022-10-16T16:31:49;101780.13;;;18.68;67.17
30347;BME280;19047;44.782;20.468;2022-10-16T16:35:06;101814.25;;;18.81;67.96
30347;BME280;19047;44.782;20.468;2022-10-16T16:38:37;101816.44;;;18.73;67.69
30347;BME280;19047;44.782;20.468;2022-10-16T16:41:56;101783.03;;;18.48;68.20
30347;BME280;19047;44.782;20.468;2022-10-16T16:45:28;101825.75;;;18.57;67.63
30347;BME280;19047;44.782;20.468;2022-10-16T16:48:45;101822.25;;;18.50;68.71
30347;BME280;19047;44.782;20.468;2022-10-16T16:52:18;101838.19;;;18.44;68.75
30347;BME280;19047;44.782;20.468;2022-10-16T16:55:35;101836.34;;;18.37;68.68
30347;BME280;19047;44.782;20.468;2022-10-16T16:59:05;101840.84;;;18.35;68.63
30347;BME280;19047;44.782;20.468;2022-10-16T17:02:23;101848.19;;;18.32;68.38
30347;BME280;19047;44.782;20.468;2022-10-16T17:05:57;101856.69;;;18.32;68.08
30347;BME280;19047;44.782;20.468;2022-10-16T17:09:15;101832.09;;;18.09;68.44
30347;BME280;19047;44.782;20.468;2022-10-16T17:12:47;101861.78;;;18.21;68.52
30347;BME280;19047;44.782;20.468;2022-10-16T17:16:04;101866.75;;;18.17;68.75
30347;BME280;19047;44.782;20.468;2022-10-16T17:19:34;101835.75;;;17.90;68.69
30347;BME280;19047;44.782;20.468;2022-10-16T17:22:52;101871.47;;;18.04;69.02
30347;BME280;19047;44.782;20.468;2022-10-16T17:26:23;101875.69;;;17.96;69.38
30347;BME280;19047;44.782;20.468;2022-10-16T17:29:43;101879.09;;;17.87;69.66
30347;BME280;19047;44.782;20.468;2022-10-16T17:33:17;101884.13;;;17.79;69.94
30347;BME280;19047;44.782;20.468;2022-10-16T17:36:35;101895.59;;;17.72;69.86
30347;BME280;19047;44.782;20.468;2022-10-16T17:40:06;101886.41;;;17.65;69.88
30347;BME280;19047;44.782;20.468;2022-10-16T17:43:36;101892.63;;;17.56;69.93
30347;BME280;19047;44.782;20.468;2022-10-16T17:47:08;101901.69;;;17.47;70.11
30347;BME280;19047;44.782;20.468;2022-10-16T17:50:25;101901.09;;;17.36;70.20
30347;BME280;19047;44.782;20.468;2022-10-16T17:54:00;101903.25;;;17.29;70.34
30347;BME280;19047;44.782;20.468;2022-10-16T17:57:22;101914.69;;;17.22;70.29
30347;BME280;19047;44.782;20.468;2022-10-16T18:00:53;101908.78;;;17.12;70.35
30347;BME280;19047;44.782;20.468;2022-10-16T18:04:13;101910.50;;;17.06;70.51
30347;BME280;19047;44.782;20.468;2022-10-16T18:07:47;101917.06;;;17.00;70.79
30347;BME280;19047;44.782;20.468;2022-10-16T18:11:04;101881.94;;;16.74;70.97
30347;BME280;19047;44.782;20.468;2022-10-16T18:14:35;101919.25;;;16.89;70.85
30347;BME280;19047;44.782;20.468;2022-10-16T18:17:54;101925.84;;;16.82;70.94
30347;BME280;19047;44.782;20.468;2022-10-16T18:21:25;101929.94;;;16.77;71.06
30347;BME280;19047;44.782;20.468;2022-10-16T18:24:45;101905.59;;;16.57;71.09
30347;BME280;19047;44.782;20.468;2022-10-16T18:28:15;101916.97;;;16.53;71.34
30347;BME280;19047;44.782;20.468;2022-10-16T18:31:33;101938.28;;;16.58;71.47
30347;BME280;19047;44.782;20.468;2022-10-16T18:35:04;101941.59;;;16.53;71.49
30347;BME280;19047;44.782;20.468;2022-10-16T18:38:21;101947.31;;;16.46;71.68
30347;BME280;19047;44.782;20.468;2022-10-16T18:41:52;101950.63;;;16.40;71.76
30347;BME280;19047;44.782;20.468;2022-10-16T18:45:15;101955.13;;;16.34;72.01
30347;BME280;19047;44.782;20.468;2022-10-16T18:48:46;101953.59;;;16.30;71.94
30347;BME280;19047;44.782;20.468;2022-10-16T18:52:04;101955.28;;;16.24;72.18
30347;BME280;19047;44.782;20.468;2022-10-16T18:55:34;101957.38;;;16.20;72.51
30347;BME280;19047;44.782;20.468;2022-10-16T18:58:51;101961.06;;;16.13;72.60
30347;BME280;19047;44.782;20.468;2022-10-16T19:02:21;101960.31;;;16.09;72.32
30347;BME280;19047;44.782;20.468;2022-10-16T19:05:38;101968.44;;;16.03;72.66
30347;BME280;19047;44.782;20.468;2022-10-16T19:09:12;101967.69;;;15.99;72.54
30347;BME280;19047;44.782;20.468;2022-10-16T19:12:32;101977.41;;;15.95;72.80
30347;BME280;19047;44.782;20.468;2022-10-16T19:16:03;101978.66;;;15.90;72.81
30347;BME280;19047;44.782;20.468;2022-10-16T19:19:21;101975.50;;;15.85;72.95
30347;BME280;19047;44.782;20.468;2022-10-16T19:22:52;101989.66;;;15.81;73.01
30347;BME280;19047;44.782;20.468;2022-10-16T19:26:16;102000.19;;;15.77;73.23